GEML Información de aeropuertos

Información de pistas
Pista 15 Longitud 4685 ft Ancho 148 ft
Elevación 156 ft Umbral 755 ft Rumbo 146
Pista 33 Longitud 4685 ft Ancho 148 ft
Elevación 133 ft Umbral 0 ft Rumbo 326
Frecuencias
Tipo GND Nombre GND Frequencia 121.7 MHZ
Tipo TWR Nombre TWR Frequencia 118.5 MHZ
Radioayudas
Tipo VOR-DME Nombre Melilla Frequencia 114250 KHZ
Tipo DME Nombre Melilla Frequencia 117400 KHZ
Información meteorológica y NOTAM
ADDS - METARS form results

(0245 UTC 20 January 2021)
Data provider http://aviationweather.gov/metar/data/
 
METAR text: GEML 200230Z AUTO 27003KT 230V340 CAVOK 06/05 Q1021
Conditions at: GEML (MELILLA , ES) observed 0230 UTC 20 January 2021
Temperature: 6.0°C (43°F)
Dewpoint: 5.0°C (41°F) [RH = 93%]
Pressure (altimeter): 30.15 inches Hg (1021.0 mb)
Winds: from the W (270 degrees) at 3 MPH (3 knots; 1.5 m/s)
Visibility: 6 or more miles (10+ km)
Ceiling: ceiling and visibility are OK
Clouds: unknown
Weather: no significant weather observed at this time

METAR text: GEML 200200Z AUTO VRB02KT 9000 NCD 07/06 Q1021
Conditions at: GEML (MELILLA , ES) observed 0200 UTC 20 January 2021
Temperature: 7.0°C (45°F)
Dewpoint: 6.0°C (43°F) [RH = 93%]
Pressure (altimeter): 30.15 inches Hg (1021.0 mb)
Winds: variable direction winds at 2 MPH (2 knots; 1.0 m/s)
Visibility: 6 miles ( 9 km)
Ceiling: at least 12,000 feet AGL
Clouds: sky clear below 12,000 feet AGL
Weather: no significant weather observed at this time

Forecast for: GEML (MELILLA , ES)
Text: TAF GEML 200200Z 2003/2103 25005KT CAVOK TX17/2014Z TN06/2006Z
Forecast period: 0300 UTC 20 January 2021 to 0300 UTC 21 January 2021
Forecast type: FROM: standard forecast or significant change
Winds: from the WSW (250 degrees) at 6 MPH (5 knots; 2.6 m/s)
Visibility: 6 or more miles (10+ km)
Ceiling: unknown
Clouds: missing
Weather: no significant weather forecast for this period
Text: PROB40
Forecast period: 2100 UTC 20 January 2021 to 0000 UTC 21 January 2021
Forecast type: TEMPORARY: The following changes expected for less than half the time period
Winds: from the WSW (250 degrees) at 17 MPH (15 knots; 7.7 m/s)
gusting to 29 MPH (25 knots; 12.9 m/s)
Visibility: 2.49 miles (4.01 km)
Ceiling: 1400 feet AGL
Clouds: broken clouds at 1400 feet AGL
Weather: RA  (moderate rain)